createdAt,value
2022-11-08T00:00:40.570Z,12.86
2022-11-08T00:03:08.212Z,12.90
2022-11-08T00:05:53.334Z,12.83
2022-11-08T00:08:39.762Z,12.85
2022-11-08T00:11:25.025Z,12.83
2022-11-08T00:13:58.499Z,12.77
2022-11-08T00:16:25.973Z,12.81
2022-11-08T00:18:53.429Z,12.79
2022-11-08T00:21:20.874Z,12.73
2022-11-08T00:23:49.675Z,12.76
2022-11-08T00:26:17.205Z,12.67
2022-11-08T00:28:44.692Z,12.63
2022-11-08T00:31:12.131Z,12.61
2022-11-08T00:33:39.610Z,12.58
2022-11-08T00:36:07.541Z,12.53
2022-11-08T00:38:35.021Z,12.62
2022-11-08T00:41:03.864Z,12.66
2022-11-08T00:43:31.328Z,12.66
2022-11-08T00:45:58.808Z,12.67
2022-11-08T00:48:26.263Z,12.69
2022-11-08T00:50:53.708Z,12.65
2022-11-08T00:53:21.141Z,12.68
2022-11-08T00:55:48.600Z,12.74
2022-11-08T00:58:17.620Z,12.64
2022-11-08T01:00:45.303Z,12.67
2022-11-08T01:03:21.705Z,12.71
2022-11-08T01:05:49.718Z,12.77
2022-11-08T01:08:18.357Z,12.74
2022-11-08T01:10:48.575Z,12.76
2022-11-08T01:13:18.982Z,12.84
2022-11-08T01:15:46.904Z,12.81
2022-11-08T01:18:17.065Z,12.77
2022-11-08T01:20:46.511Z,12.80
2022-11-08T01:23:14.320Z,12.84
2022-11-08T01:25:43.592Z,12.83
2022-11-08T01:28:11.994Z,12.79
2022-11-08T01:30:43.232Z,12.86
2022-11-08T01:33:11.795Z,12.82
2022-11-08T01:35:39.859Z,12.77
2022-11-08T01:38:09.377Z,12.86
2022-11-08T01:40:43.746Z,12.86
2022-11-08T01:43:35.647Z,12.87
2022-11-08T01:46:41.626Z,12.88
2022-11-08T01:49:37.013Z,12.88
2022-11-08T01:52:17.467Z,12.98
2022-11-08T01:54:52.468Z,12.95
2022-11-08T01:57:24.051Z,12.97
2022-11-08T01:59:56.219Z,12.96
2022-11-08T02:02:25.148Z,13.00
2022-11-08T02:04:52.691Z,13.03
2022-11-08T02:07:20.314Z,13.15
2022-11-08T02:09:48.864Z,13.09
2022-11-08T02:12:18.004Z,13.01
2022-11-08T02:14:45.501Z,13.04
2022-11-08T02:17:14.369Z,13.10
2022-11-08T02:19:46.313Z,13.02
2022-11-08T02:22:20.721Z,13.07
2022-11-08T02:24:49.491Z,13.04
2022-11-08T02:27:17.007Z,12.98
2022-11-08T02:29:44.428Z,13.06
2022-11-08T02:32:12.542Z,13.06
2022-11-08T02:34:44.675Z,13.06
2022-11-08T02:37:13.242Z,12.98
2022-11-08T02:39:40.699Z,13.09
2022-11-08T02:42:14.815Z,13.15
2022-11-08T02:44:42.280Z,13.17
2022-11-08T02:47:09.989Z,13.25
2022-11-08T02:49:37.415Z,13.21
2022-11-08T02:52:05.478Z,13.21
2022-11-08T02:54:32.974Z,13.22
2022-11-08T02:57:00.449Z,13.26
2022-11-08T02:59:29.657Z,13.20
2022-11-08T03:01:57.229Z,13.23
2022-11-08T03:04:24.825Z,13.26
2022-11-08T03:06:52.395Z,13.29
2022-11-08T03:09:19.815Z,13.19
2022-11-08T03:11:47.331Z,13.15
2022-11-08T03:14:14.779Z,13.13
2022-11-08T03:16:49.103Z,13.11
2022-11-08T03:19:16.549Z,13.14
2022-11-08T03:21:44.040Z,13.15
2022-11-08T03:24:11.865Z,13.09
2022-11-08T03:26:39.310Z,13.11
2022-11-08T03:29:06.800Z,13.02
2022-11-08T03:31:37.157Z,13.06
2022-11-08T03:34:05.987Z,12.93
2022-11-08T03:36:33.450Z,12.84
2022-11-08T03:39:00.890Z,12.84
2022-11-08T03:41:28.347Z,12.90
2022-11-08T03:43:55.785Z,12.89
2022-11-08T03:46:23.236Z,12.86
2022-11-08T03:48:50.690Z,12.82
2022-11-08T03:51:19.479Z,12.72
2022-11-08T03:53:46.967Z,12.83
2022-11-08T03:56:14.440Z,12.74
2022-11-08T03:58:41.887Z,12.77
2022-11-08T04:01:09.651Z,12.77
2022-11-08T04:03:37.174Z,12.85
2022-11-08T04:06:05.348Z,12.77
2022-11-08T04:08:34.175Z,12.63
2022-11-08T04:11:22.306Z,12.74
2022-11-08T04:14:07.671Z,12.83
2022-11-08T04:16:35.483Z,12.70
2022-11-08T04:19:20.769Z,12.75
2022-11-08T04:21:50.238Z,12.67
2022-11-08T04:24:19.389Z,12.68
2022-11-08T04:26:46.883Z,12.60
2022-11-08T04:29:14.610Z,12.64
2022-11-08T04:31:42.170Z,12.63
2022-11-08T04:34:09.667Z,12.67
2022-11-08T04:36:43.180Z,12.67
2022-11-08T04:39:12.914Z,12.70
2022-11-08T04:41:43.533Z,12.70
2022-11-08T04:44:14.698Z,12.73
2022-11-08T04:46:42.166Z,12.78
2022-11-08T04:49:09.669Z,12.81
2022-11-08T04:51:39.371Z,12.86
2022-11-08T04:54:11.659Z,12.89
2022-11-08T04:56:39.100Z,12.89
2022-11-08T04:59:11.923Z,12.87
2022-11-08T05:01:39.939Z,12.71
2022-11-08T05:04:10.424Z,12.81
2022-11-08T05:06:37.915Z,12.71
2022-11-08T05:09:07.737Z,12.73
2022-11-08T05:11:35.168Z,12.80
2022-11-08T05:14:02.688Z,12.56
2022-11-08T05:16:32.746Z,12.60
2022-11-08T05:19:03.272Z,12.55
2022-11-08T05:21:51.541Z,12.56
2022-11-08T05:24:19.344Z,12.52
2022-11-08T05:26:51.329Z,12.54
2022-11-08T05:29:21.183Z,12.38
2022-11-08T05:31:51.352Z,12.44
2022-11-08T05:34:19.792Z,12.49
2022-11-08T05:36:47.235Z,12.49
2022-11-08T05:39:14.673Z,12.49
2022-11-08T05:41:44.178Z,12.51
2022-11-08T05:44:11.651Z,12.44
2022-11-08T05:46:39.123Z,12.36
2022-11-08T05:49:07.973Z,12.47
2022-11-08T05:51:35.936Z,12.42
2022-11-08T05:54:03.423Z,12.55
2022-11-08T05:56:31.064Z,12.43
2022-11-08T05:58:58.530Z,12.29
2022-11-08T06:01:26.210Z,12.38
2022-11-08T06:03:53.694Z,12.33
2022-11-08T06:06:23.355Z,12.33
2022-11-08T06:08:54.722Z,12.36
2022-11-08T06:11:24.636Z,12.38
2022-11-08T06:13:53.330Z,12.37
2022-11-08T06:16:22.378Z,12.40
2022-11-08T06:18:50.534Z,12.43
2022-11-08T06:21:19.737Z,12.44
2022-11-08T06:23:52.214Z,12.41
2022-11-08T06:26:19.664Z,12.37
2022-11-08T06:28:47.104Z,12.38
2022-11-08T06:31:14.531Z,12.42
2022-11-08T06:33:42.026Z,12.40
2022-11-08T06:36:09.612Z,12.32
2022-11-08T06:38:37.093Z,12.39
2022-11-08T06:41:05.941Z,12.45
2022-11-08T06:43:33.987Z,12.41
2022-11-08T06:46:02.433Z,12.48
2022-11-08T06:48:35.375Z,12.47
2022-11-08T06:51:04.054Z,12.52
2022-11-08T06:53:31.836Z,12.54
2022-11-08T06:55:59.756Z,12.61
2022-11-08T06:58:28.651Z,12.66
2022-11-08T07:00:56.168Z,12.57
2022-11-08T07:03:23.728Z,12.63
2022-11-08T07:05:51.202Z,12.69
2022-11-08T07:08:23.539Z,12.58
2022-11-08T07:10:51.636Z,12.73
2022-11-08T07:13:19.544Z,12.60
2022-11-08T07:15:48.746Z,12.83
2022-11-08T07:18:17.790Z,12.78
2022-11-08T07:20:45.451Z,12.97
2022-11-08T07:23:13.293Z,12.98
2022-11-08T07:25:40.751Z,12.95
2022-11-08T07:28:16.901Z,13.00
2022-11-08T07:30:44.942Z,13.09
2022-11-08T07:33:14.920Z,13.12
2022-11-08T07:35:42.958Z,13.21
2022-11-08T07:38:10.391Z,13.06
2022-11-08T07:40:37.830Z,13.12
2022-11-08T07:43:11.838Z,13.10
2022-11-08T07:45:56.266Z,13.11
2022-11-08T07:48:25.720Z,13.19
2022-11-08T07:50:53.220Z,13.18
2022-11-08T07:53:21.102Z,13.25
2022-11-08T07:55:49.230Z,13.20
2022-11-08T07:58:17.099Z,13.26
2022-11-08T08:00:45.886Z,13.14
2022-11-08T08:03:15.073Z,13.23
2022-11-08T08:05:45.168Z,13.32
2022-11-08T08:08:14.607Z,13.37
2022-11-08T08:10:42.517Z,13.36
2022-11-08T08:13:10.023Z,13.42
2022-11-08T08:15:37.780Z,13.34
2022-11-08T08:18:06.760Z,13.44
2022-11-08T08:20:34.926Z,13.54
2022-11-08T08:23:03.743Z,13.70
2022-11-08T08:25:31.807Z,13.76
2022-11-08T08:28:01.713Z,13.80
2022-11-08T08:30:31.064Z,13.80
2022-11-08T08:35:55.441Z,13.95
2022-11-08T08:38:24.429Z,13.97
2022-11-08T08:40:52.168Z,14.00
2022-11-08T08:43:20.690Z,14.06
2022-11-08T08:45:48.683Z,14.13
2022-11-08T08:48:16.220Z,14.32
2022-11-08T08:50:43.708Z,14.22
2022-11-08T08:53:11.533Z,14.18
2022-11-08T08:55:41.618Z,14.27
2022-11-08T08:58:09.408Z,14.22
2022-11-08T09:03:24.186Z,14.26
2022-11-08T09:05:51.691Z,14.34
2022-11-08T09:08:19.292Z,14.30
2022-11-08T09:10:54.097Z,14.39
2022-11-08T09:13:21.677Z,14.32
2022-11-08T09:15:49.171Z,14.48
2022-11-08T09:18:17.728Z,14.50
2022-11-08T09:20:45.396Z,14.40
2022-11-08T09:23:13.129Z,14.50
2022-11-08T09:25:40.871Z,14.60
2022-11-08T09:28:10.262Z,14.57
2022-11-08T09:30:37.697Z,14.52
2022-11-08T09:33:05.829Z,14.62
2022-11-08T09:35:33.311Z,14.58
2022-11-08T09:38:00.743Z,14.67
2022-11-08T09:40:32.568Z,14.86
2022-11-08T09:43:09.277Z,14.80
2022-11-08T09:45:44.483Z,14.79
2022-11-08T09:48:17.986Z,14.80
2022-11-08T09:50:47.884Z,14.70
2022-11-08T09:53:19.564Z,14.76
2022-11-08T09:55:53.424Z,14.86
2022-11-08T09:58:29.072Z,14.82
2022-11-08T10:00:57.901Z,14.93
2022-11-08T10:03:26.153Z,14.92
2022-11-08T10:06:11.582Z,14.87
2022-11-08T10:08:46.534Z,15.03
2022-11-08T10:11:27.590Z,15.03
2022-11-08T10:14:10.615Z,14.82
2022-11-08T10:16:48.494Z,14.97
2022-11-08T10:19:34.874Z,14.86
2022-11-08T10:22:06.238Z,15.02
2022-11-08T10:24:36.552Z,14.88
2022-11-08T10:27:11.547Z,14.86
2022-11-08T10:29:44.528Z,14.82
2022-11-08T10:32:21.958Z,14.81
2022-11-08T10:34:56.067Z,14.89
2022-11-08T10:37:25.517Z,15.00
2022-11-08T10:39:58.076Z,14.94
2022-11-08T10:42:34.988Z,14.96
2022-11-08T10:45:02.585Z,14.97
2022-11-08T10:47:33.968Z,15.03
2022-11-08T10:50:04.259Z,14.97
2022-11-08T10:52:38.181Z,14.98
2022-11-08T10:55:07.776Z,14.94
2022-11-08T10:57:40.462Z,14.94
2022-11-08T11:00:25.346Z,14.84
2022-11-08T11:02:56.251Z,14.97
2022-11-08T11:05:31.387Z,14.82
2022-11-08T11:08:03.248Z,14.82
2022-11-08T11:10:33.224Z,14.86
2022-11-08T11:13:10.628Z,14.81
2022-11-08T11:15:40.411Z,14.90
2022-11-08T11:18:22.618Z,14.78
2022-11-08T11:21:06.638Z,14.77
2022-11-08T11:23:36.319Z,14.86
2022-11-08T11:26:05.197Z,14.80
2022-11-08T11:28:32.641Z,14.76
2022-11-08T11:31:01.960Z,14.79
2022-11-08T11:33:33.490Z,14.87
2022-11-08T11:36:09.379Z,14.80
2022-11-08T11:38:49.229Z,14.73
2022-11-08T11:41:19.385Z,14.76
2022-11-08T11:44:03.201Z,14.90
2022-11-08T11:46:41.152Z,14.97
2022-11-08T11:49:14.408Z,14.93
2022-11-08T11:51:41.911Z,15.05
2022-11-08T11:54:14.566Z,15.01
2022-11-08T11:56:49.453Z,15.10
2022-11-08T11:59:39.208Z,15.03
2022-11-08T12:02:42.491Z,15.23
2022-11-08T12:05:26.310Z,15.37
2022-11-08T12:08:03.914Z,15.31
2022-11-08T12:10:46.558Z,15.39
2022-11-08T12:13:21.984Z,15.34
2022-11-08T12:15:54.544Z,15.29
2022-11-08T12:18:44.488Z,15.34
2022-11-08T12:21:15.792Z,15.37
2022-11-08T12:24:16.944Z,15.44
2022-11-08T12:26:53.124Z,15.42
2022-11-08T12:29:26.929Z,15.47
2022-11-08T12:32:08.341Z,15.62
2022-11-08T12:34:47.153Z,15.62
2022-11-08T12:37:28.091Z,15.74
2022-11-08T12:40:00.987Z,15.74
2022-11-08T12:42:51.919Z,15.90
2022-11-08T12:45:48.685Z,15.84
2022-11-08T12:48:27.985Z,16.02
2022-11-08T12:51:03.964Z,15.86
2022-11-08T12:53:49.625Z,15.91
2022-11-08T12:56:22.122Z,15.94
2022-11-08T12:58:51.406Z,15.94
2022-11-08T13:01:20.627Z,15.96
2022-11-08T13:04:11.728Z,15.88
2022-11-08T13:06:44.921Z,15.89
2022-11-08T13:09:23.818Z,15.89
2022-11-08T13:12:01.162Z,15.86
2022-11-08T13:14:29.166Z,15.75
2022-11-08T13:17:19.005Z,15.76
2022-11-08T13:20:25.508Z,15.77
2022-11-08T13:23:01.839Z,15.85
2022-11-08T13:25:41.521Z,15.84
2022-11-08T13:28:51.741Z,16.02
2022-11-08T13:31:45.434Z,15.96
2022-11-08T13:34:22.562Z,15.97
2022-11-08T13:37:06.503Z,15.93
2022-11-08T13:39:52.589Z,16.01
2022-11-08T13:42:39.239Z,16.11
2022-11-08T13:45:29.004Z,16.00
2022-11-08T13:47:59.277Z,16.07
2022-11-08T13:50:50.023Z,16.07
2022-11-08T13:53:45.080Z,15.86
2022-11-08T13:56:25.735Z,15.90
2022-11-08T13:58:54.516Z,15.84
2022-11-08T14:02:04.852Z,15.74
2022-11-08T14:04:35.340Z,15.80
2022-11-08T14:07:09.220Z,15.86
2022-11-08T14:09:47.302Z,15.97
2022-11-08T14:12:20.953Z,15.88
2022-11-08T14:14:56.047Z,15.88
2022-11-08T14:17:40.832Z,15.91
2022-11-08T14:20:40.267Z,15.82
2022-11-08T14:23:23.868Z,15.76
2022-11-08T14:25:53.713Z,15.82
2022-11-08T14:28:23.820Z,15.68
2022-11-08T14:30:53.107Z,15.51
2022-11-08T14:33:23.042Z,15.47
2022-11-08T14:35:55.843Z,15.38
2022-11-08T14:38:24.247Z,15.41
2022-11-08T14:40:54.208Z,15.27
2022-11-08T14:43:23.201Z,15.36
2022-11-08T14:45:52.491Z,15.41
2022-11-08T14:48:23.950Z,15.48
2022-11-08T14:50:59.253Z,15.39
2022-11-08T14:53:28.471Z,15.41
2022-11-08T14:56:16.943Z,15.41
2022-11-08T14:58:45.419Z,15.41
2022-11-08T15:01:16.692Z,15.39
2022-11-08T15:03:48.490Z,15.38
2022-11-08T15:06:16.118Z,15.39
2022-11-08T15:08:49.045Z,15.47
2022-11-08T15:11:29.219Z,15.26
2022-11-08T15:14:00.145Z,15.19
2022-11-08T15:16:38.439Z,15.21
2022-11-08T15:19:20.533Z,15.32
2022-11-08T15:21:49.310Z,15.21
2022-11-08T15:24:17.724Z,15.21
2022-11-08T15:27:01.555Z,15.27
2022-11-08T15:29:29.222Z,15.23
2022-11-08T15:32:01.976Z,15.28
2022-11-08T15:34:38.142Z,15.20
2022-11-08T15:37:20.347Z,15.32
2022-11-08T15:39:47.915Z,15.28
2022-11-08T15:42:18.044Z,15.26
2022-11-08T15:45:02.832Z,15.29
2022-11-08T15:47:40.420Z,15.24
2022-11-08T15:50:17.011Z,15.21
2022-11-08T15:52:46.142Z,15.35
2022-11-08T15:55:15.658Z,15.36
2022-11-08T15:57:44.874Z,15.34
2022-11-08T16:00:18.377Z,15.32
2022-11-08T16:02:47.126Z,15.32
2022-11-08T16:05:21.231Z,15.28
2022-11-08T16:07:48.676Z,15.32
2022-11-08T16:10:17.864Z,15.40
2022-11-08T16:12:47.059Z,15.39
2022-11-08T16:15:17.590Z,15.37
2022-11-08T16:17:46.666Z,15.42
2022-11-08T16:20:20.971Z,15.34
2022-11-08T16:22:48.404Z,15.21
2022-11-08T16:25:15.904Z,15.28
2022-11-08T16:27:43.522Z,15.31
2022-11-08T16:30:15.413Z,15.22
2022-11-08T16:32:43.453Z,15.26
2022-11-08T16:35:12.269Z,15.23
2022-11-08T16:37:40.055Z,15.20
2022-11-08T16:40:16.194Z,15.17
2022-11-08T16:42:43.776Z,15.28
2022-11-08T16:45:12.339Z,15.26
2022-11-08T16:47:40.251Z,15.27
2022-11-08T16:50:14.528Z,15.26
2022-11-08T16:52:43.337Z,15.24
2022-11-08T16:55:17.449Z,15.14
2022-11-08T16:57:45.918Z,15.18
2022-11-08T17:00:15.927Z,15.29
2022-11-08T17:02:47.314Z,15.28
2022-11-08T17:05:18.815Z,15.28
2022-11-08T17:07:47.634Z,15.38
2022-11-08T17:10:17.433Z,15.34
2022-11-08T17:12:44.920Z,15.31
2022-11-08T17:15:13.974Z,15.31
2022-11-08T17:17:44.052Z,15.23
2022-11-08T17:20:13.805Z,15.32
2022-11-08T17:22:41.879Z,15.32
2022-11-08T17:25:13.572Z,15.40
2022-11-08T17:27:41.068Z,15.40
2022-11-08T17:30:10.306Z,15.45
2022-11-08T17:32:38.086Z,15.30
2022-11-08T17:35:07.542Z,15.45
2022-11-08T17:37:35.925Z,15.36
2022-11-08T17:40:05.332Z,15.37
2022-11-08T17:42:37.300Z,15.40
2022-11-08T17:45:07.451Z,15.26
2022-11-08T17:47:34.932Z,15.31
2022-11-08T17:50:02.585Z,15.37
2022-11-08T17:52:31.076Z,15.31
2022-11-08T17:54:58.543Z,15.42
2022-11-08T17:57:26.967Z,15.41
2022-11-08T17:59:55.731Z,15.38
2022-11-08T18:02:23.240Z,15.40
2022-11-08T18:04:50.723Z,15.28
2022-11-08T18:07:18.173Z,15.32
2022-11-08T18:09:45.678Z,15.28
2022-11-08T18:12:13.122Z,15.34
2022-11-08T18:14:40.594Z,15.40
2022-11-08T18:17:09.360Z,15.40
2022-11-08T18:19:37.181Z,15.30
2022-11-08T18:22:05.425Z,15.28
2022-11-08T18:24:33.064Z,15.31
2022-11-08T18:27:00.504Z,15.31
2022-11-08T18:29:28.194Z,15.33
2022-11-08T18:31:55.618Z,15.41
2022-11-08T18:34:24.433Z,15.31
2022-11-08T18:36:51.876Z,15.27
2022-11-08T18:39:19.963Z,15.43
2022-11-08T18:41:47.698Z,15.42
2022-11-08T18:44:15.353Z,15.36
2022-11-08T18:46:43.703Z,15.33
2022-11-08T18:49:11.778Z,15.35
2022-11-08T18:51:40.646Z,15.48
2022-11-08T18:54:08.148Z,15.40
2022-11-08T18:56:35.703Z,15.37
2022-11-08T18:59:03.313Z,15.51
2022-11-08T19:01:31.247Z,15.49
2022-11-08T19:03:58.735Z,15.47
2022-11-08T19:06:26.276Z,15.46
2022-11-08T19:08:57.419Z,15.48
2022-11-08T19:11:24.876Z,15.49
2022-11-08T19:13:52.334Z,15.35
2022-11-08T19:16:21.759Z,15.37
2022-11-08T19:18:50.071Z,15.42
2022-11-08T19:21:19.991Z,15.48
2022-11-08T19:23:48.084Z,15.47
2022-11-08T19:26:18.811Z,15.35
2022-11-08T19:28:47.269Z,15.40
2022-11-08T19:31:16.469Z,15.42
2022-11-08T19:33:44.584Z,15.53
2022-11-08T19:36:14.975Z,15.42
2022-11-08T19:38:42.698Z,15.31
2022-11-08T19:41:12.155Z,15.48
2022-11-08T19:43:42.856Z,15.53
2022-11-08T19:46:13.172Z,15.52
2022-11-08T19:48:42.516Z,15.47
2022-11-08T19:51:13.684Z,15.54
2022-11-08T19:53:41.289Z,15.48
2022-11-08T19:56:10.995Z,15.59
2022-11-08T19:58:39.563Z,15.59
2022-11-08T20:01:12.810Z,15.57
2022-11-08T20:03:40.645Z,15.62
2022-11-08T20:06:09.218Z,15.60
2022-11-08T20:08:37.332Z,15.74
2022-11-08T20:11:12.094Z,15.72
2022-11-08T20:13:39.582Z,15.68
2022-11-08T20:16:12.795Z,15.70
2022-11-08T20:18:40.838Z,15.80
2022-11-08T20:21:09.454Z,15.71
2022-11-08T20:23:37.219Z,15.73
2022-11-08T20:26:08.120Z,15.85
2022-11-08T20:28:36.307Z,15.73
2022-11-08T20:31:11.616Z,15.76
2022-11-08T20:33:40.892Z,15.77
2022-11-08T20:36:14.635Z,15.82
2022-11-08T20:38:42.940Z,15.76
2022-11-08T20:41:12.747Z,15.75
2022-11-08T20:43:40.675Z,15.71
2022-11-08T20:46:10.254Z,15.78
2022-11-08T20:48:42.727Z,15.73
2022-11-08T20:51:16.144Z,15.59
2022-11-08T20:53:43.930Z,15.61
2022-11-08T20:56:17.039Z,15.68
2022-11-08T20:58:45.610Z,15.63
2022-11-08T21:01:14.855Z,15.65
2022-11-08T21:03:43.148Z,15.69
2022-11-08T21:06:13.669Z,15.62
2022-11-08T21:09:04.837Z,15.56
2022-11-08T21:11:34.421Z,15.63
2022-11-08T21:14:02.531Z,15.60
2022-11-08T21:16:46.990Z,15.57
2022-11-08T21:19:22.640Z,15.59
2022-11-08T21:22:11.451Z,15.67
2022-11-08T21:24:38.965Z,15.70
2022-11-08T21:27:12.236Z,15.75
2022-11-08T21:29:40.052Z,15.68
2022-11-08T21:32:10.632Z,15.73
2022-11-08T21:34:45.481Z,15.70
2022-11-08T21:37:15.607Z,15.75
2022-11-08T21:39:45.310Z,15.87
2022-11-08T21:42:13.772Z,15.76
2022-11-08T21:44:41.300Z,15.76
2022-11-08T21:47:08.813Z,15.75
2022-11-08T21:49:38.377Z,15.64
2022-11-08T21:52:06.156Z,15.72
2022-11-08T21:54:35.218Z,15.75
2022-11-08T21:57:04.705Z,15.71
2022-11-08T21:59:32.209Z,15.67
2022-11-08T22:01:59.713Z,15.69
2022-11-08T22:04:30.519Z,15.76
2022-11-08T22:06:58.105Z,15.61
2022-11-08T22:09:28.160Z,15.61
2022-11-08T22:11:59.501Z,15.61
2022-11-08T22:14:26.973Z,15.60
2022-11-08T22:16:56.771Z,15.57
2022-11-08T22:19:24.257Z,15.53
2022-11-08T22:21:53.251Z,15.54
2022-11-08T22:24:23.542Z,15.49
2022-11-08T22:26:52.592Z,15.47
2022-11-08T22:29:23.774Z,15.43
2022-11-08T22:31:53.352Z,15.57
2022-11-08T22:34:20.829Z,15.61
2022-11-08T22:36:50.039Z,15.54
2022-11-08T22:39:19.648Z,15.47
2022-11-08T22:41:50.417Z,15.44
2022-11-08T22:44:18.501Z,15.48
2022-11-08T22:46:48.286Z,15.50
2022-11-08T22:49:18.803Z,15.46
2022-11-08T22:51:46.369Z,15.50
2022-11-08T22:54:13.915Z,15.51
2022-11-08T22:56:41.702Z,15.53
2022-11-08T22:59:12.859Z,15.54
2022-11-08T23:01:40.348Z,15.51
2022-11-08T23:04:11.150Z,15.54
2022-11-08T23:06:41.258Z,15.50
2022-11-08T23:09:08.961Z,15.57
2022-11-08T23:11:54.299Z,15.59
2022-11-08T23:14:39.913Z,15.44
2022-11-08T23:17:08.890Z,15.46
2022-11-08T23:19:55.496Z,15.47
2022-11-08T23:22:37.112Z,15.52
2022-11-08T23:25:05.924Z,15.55
2022-11-08T23:27:51.207Z,15.47
2022-11-08T23:30:36.664Z,15.51
2022-11-08T23:33:06.443Z,15.48
2022-11-08T23:35:35.389Z,15.55
2022-11-08T23:38:03.014Z,15.57
2022-11-08T23:40:48.176Z,15.57
2022-11-08T23:43:35.061Z,15.53
2022-11-08T23:46:06.596Z,15.52
2022-11-08T23:48:34.139Z,15.58
2022-11-08T23:51:03.109Z,15.46
2022-11-08T23:53:30.581Z,15.40
2022-11-08T23:55:58.038Z,15.42
2022-11-08T23:58:26.396Z,15.42
